createdAt,value
2018-07-30T00:02:16.770Z,24.80
2018-07-30T00:04:45.432Z,24.60
2018-07-30T00:07:15.033Z,24.50
2018-07-30T00:09:43.650Z,24.40
2018-07-30T00:12:12.303Z,24.50
2018-07-30T00:14:40.960Z,24.40
2018-07-30T00:17:09.703Z,24.30
2018-07-30T00:19:38.418Z,24.10
2018-07-30T00:22:07.472Z,23.90
2018-07-30T00:24:36.292Z,24.00
2018-07-30T00:27:04.943Z,24.00
2018-07-30T00:29:33.615Z,24.20
2018-07-30T00:32:02.251Z,24.20
2018-07-30T00:34:31.126Z,24.30
2018-07-30T00:39:28.207Z,24.20
2018-07-30T00:41:57.942Z,24.10
2018-07-30T00:44:26.583Z,24.10
2018-07-30T00:49:23.775Z,23.60
2018-07-30T00:51:52.428Z,23.20
2018-07-30T00:54:21.070Z,22.90
2018-07-30T00:56:49.692Z,22.60
2018-07-30T00:59:18.336Z,22.60
2018-07-30T01:01:46.993Z,22.90
2018-07-30T01:04:15.610Z,23.40
2018-07-30T01:06:44.237Z,23.60
2018-07-30T01:09:12.897Z,23.70
2018-07-30T01:11:41.548Z,23.80
2018-07-30T01:14:13.597Z,23.80
2018-07-30T01:16:42.866Z,23.60
2018-07-30T01:19:11.483Z,23.50
2018-07-30T01:21:40.482Z,23.60
2018-07-30T01:26:37.591Z,23.80
2018-07-30T01:29:06.330Z,23.90
2018-07-30T01:31:34.990Z,23.80
2018-07-30T01:36:32.269Z,23.80
2018-07-30T01:41:29.305Z,23.50
2018-07-30T01:43:57.937Z,23.40
2018-07-30T01:46:26.545Z,23.30
2018-07-30T01:48:55.143Z,23.20
2018-07-30T01:51:23.842Z,23.10
2018-07-30T01:53:52.580Z,22.90
2018-07-30T01:56:21.215Z,22.60
2018-07-30T01:58:49.910Z,22.40
2018-07-30T02:01:18.587Z,22.20
2018-07-30T02:03:47.282Z,22.10
2018-07-30T02:08:44.350Z,22.00
2018-07-30T02:11:13.008Z,22.10
2018-07-30T02:13:41.675Z,22.10
2018-07-30T02:16:10.376Z,22.30
2018-07-30T02:18:39.015Z,22.40
2018-07-30T02:21:07.716Z,22.30
2018-07-30T02:23:36.343Z,22.30
2018-07-30T02:26:04.995Z,22.30
2018-07-30T02:28:33.683Z,22.20
2018-07-30T02:31:02.401Z,22.10
2018-07-30T02:33:31.055Z,21.90
2018-07-30T02:35:59.690Z,21.90
2018-07-30T02:38:28.526Z,21.80
2018-07-30T02:40:58.106Z,21.80
2018-07-30T02:43:26.826Z,21.80
2018-07-30T02:45:55.518Z,21.80
2018-07-30T02:48:24.108Z,21.70
2018-07-30T02:50:52.728Z,21.60
2018-07-30T02:55:49.758Z,21.40
2018-07-30T02:58:18.389Z,21.30
2018-07-30T03:00:47.013Z,21.30
2018-07-30T03:03:15.636Z,21.30
2018-07-30T03:08:12.698Z,21.30
2018-07-30T03:10:41.291Z,21.30
2018-07-30T03:13:09.908Z,21.40
2018-07-30T03:15:38.663Z,21.30
2018-07-30T03:18:07.356Z,21.30
2018-07-30T03:20:36.006Z,21.30
2018-07-30T03:23:04.681Z,21.30
2018-07-30T03:25:33.313Z,21.30
2018-07-30T03:28:01.912Z,21.20
2018-07-30T03:30:30.631Z,21.10
2018-07-30T03:32:59.382Z,21.10
2018-07-30T03:35:28.046Z,21.00
2018-07-30T03:40:25.226Z,21.10
2018-07-30T03:42:53.816Z,21.10
2018-07-30T03:45:22.524Z,21.10
2018-07-30T03:47:51.116Z,21.00
2018-07-30T03:50:19.759Z,20.90
2018-07-30T03:52:48.431Z,20.90
2018-07-30T03:55:17.066Z,20.90
2018-07-30T03:57:45.733Z,21.00
2018-07-30T04:00:14.506Z,21.00
2018-07-30T04:05:11.988Z,20.90
2018-07-30T04:07:40.643Z,20.90
2018-07-30T04:10:10.014Z,20.90
2018-07-30T04:12:38.771Z,20.80
2018-07-30T04:15:08.319Z,20.80
2018-07-30T04:17:36.946Z,20.80
2018-07-30T04:20:05.663Z,20.90
2018-07-30T04:22:34.290Z,21.10
2018-07-30T04:27:31.308Z,21.20
2018-07-30T04:29:59.985Z,21.30
2018-07-30T04:32:28.616Z,21.30
2018-07-30T04:34:57.283Z,21.30
2018-07-30T04:37:25.923Z,21.20
2018-07-30T04:39:54.595Z,21.20
2018-07-30T04:42:23.222Z,21.30
2018-07-30T04:44:51.863Z,21.30
2018-07-30T04:47:20.513Z,21.50
2018-07-30T04:49:49.129Z,21.50
2018-07-30T04:52:17.821Z,21.60
2018-07-30T04:54:46.529Z,21.80
2018-07-30T04:57:15.146Z,21.90
2018-07-30T04:59:43.776Z,22.10
2018-07-30T05:02:12.471Z,22.40
2018-07-30T05:04:41.282Z,22.70
2018-07-30T05:07:10.044Z,22.80
2018-07-30T05:09:38.691Z,23.00
2018-07-30T05:14:35.763Z,23.30
2018-07-30T05:19:33.074Z,23.70
2018-07-30T05:22:01.722Z,23.90
2018-07-30T05:24:30.389Z,24.20
2018-07-30T05:26:59.039Z,24.40
2018-07-30T05:29:27.703Z,24.50
2018-07-30T05:31:56.323Z,24.50
2018-07-30T05:34:24.966Z,24.50
2018-07-30T05:36:53.638Z,24.50
2018-07-30T05:41:50.766Z,24.80
2018-07-30T05:44:19.441Z,25.20
2018-07-30T05:46:48.077Z,25.40
2018-07-30T05:49:16.807Z,25.70
2018-07-30T05:51:45.481Z,25.60
2018-07-30T05:54:14.180Z,25.50
2018-07-30T05:56:42.849Z,25.50
2018-07-30T05:59:11.514Z,25.70
2018-07-30T06:01:40.287Z,26.00
2018-07-30T06:04:08.982Z,26.10
2018-07-30T06:06:37.698Z,26.20
2018-07-30T06:09:09.076Z,26.40
2018-07-30T06:11:38.284Z,26.80
2018-07-30T06:14:07.004Z,27.10
2018-07-30T06:16:36.267Z,27.40
2018-07-30T06:19:04.982Z,27.30
2018-07-30T06:21:33.646Z,27.50
2018-07-30T06:24:02.359Z,27.70
2018-07-30T06:26:31.124Z,27.80
2018-07-30T06:28:59.814Z,28.10
2018-07-30T06:31:28.610Z,28.10
2018-07-30T06:33:57.241Z,28.30
2018-07-30T06:36:25.906Z,28.60
2018-07-30T06:38:54.606Z,28.70
2018-07-30T06:41:23.286Z,28.80
2018-07-30T06:43:52.183Z,29.00
2018-07-30T06:46:20.892Z,28.90
2018-07-30T06:48:49.601Z,29.00
2018-07-30T06:53:46.916Z,29.20
2018-07-30T06:56:15.539Z,29.30
2018-07-30T06:58:44.229Z,29.40
2018-07-30T07:03:41.373Z,29.60
2018-07-30T07:06:10.060Z,29.80
2018-07-30T07:08:38.753Z,29.80
2018-07-30T07:11:07.436Z,30.00
2018-07-30T07:13:36.229Z,30.20
2018-07-30T07:16:05.007Z,30.20
2018-07-30T07:18:33.728Z,30.20
2018-07-30T07:21:02.492Z,30.70
2018-07-30T07:23:31.192Z,30.80
2018-07-30T07:28:28.827Z,31.00
2018-07-30T07:30:58.339Z,31.30
2018-07-30T07:33:26.949Z,31.80
2018-07-30T07:35:55.914Z,31.80
2018-07-30T07:38:24.679Z,31.70
2018-07-30T07:40:53.373Z,31.90
2018-07-30T07:43:22.061Z,31.80
2018-07-30T07:45:50.820Z,31.80
2018-07-30T07:48:19.554Z,32.00
2018-07-30T07:50:48.437Z,32.00
2018-07-30T07:55:45.544Z,31.90
2018-07-30T08:00:42.859Z,32.40
2018-07-30T08:03:11.544Z,32.50
2018-07-30T08:05:40.146Z,32.70
2018-07-30T08:08:08.904Z,32.80
2018-07-30T08:10:38.613Z,33.00
2018-07-30T08:13:07.353Z,33.00
2018-07-30T08:15:36.113Z,33.40
2018-07-30T08:18:04.851Z,33.20
2018-07-30T08:20:33.559Z,33.00
2018-07-30T08:23:02.335Z,32.90
2018-07-30T08:25:31.109Z,33.10
2018-07-30T08:27:59.791Z,33.30
2018-07-30T08:32:57.145Z,33.10
2018-07-30T08:35:25.891Z,33.30
2018-07-30T08:37:54.713Z,33.50
2018-07-30T08:40:23.548Z,34.00
2018-07-30T08:42:52.300Z,34.30
2018-07-30T08:47:49.557Z,34.60
2018-07-30T08:50:18.283Z,34.70
2018-07-30T08:52:46.999Z,34.50
2018-07-30T08:55:15.791Z,34.70
2018-07-30T08:57:44.453Z,34.80
2018-07-30T09:00:13.169Z,35.10
2018-07-30T09:02:41.887Z,35.20
2018-07-30T09:05:10.604Z,35.10
2018-07-30T09:07:39.400Z,35.30
2018-07-30T09:10:08.619Z,35.50
2018-07-30T09:12:38.243Z,35.80
2018-07-30T09:15:07.280Z,36.00
2018-07-30T09:17:36.071Z,35.90
2018-07-30T09:20:05.912Z,36.10
2018-07-30T09:22:34.747Z,36.00
2018-07-30T09:25:03.585Z,35.90
2018-07-30T09:27:32.388Z,36.10
2018-07-30T09:30:01.058Z,36.00
2018-07-30T09:32:30.701Z,36.10
2018-07-30T09:35:00.015Z,36.20
2018-07-30T09:39:57.201Z,36.60
2018-07-30T09:42:25.937Z,36.50
2018-07-30T09:44:54.823Z,36.50
2018-07-30T09:49:52.137Z,36.70
2018-07-30T09:54:50.346Z,37.10
2018-07-30T09:57:19.142Z,37.40
2018-07-30T09:59:48.755Z,37.50
2018-07-30T10:02:17.541Z,37.80
2018-07-30T10:04:46.451Z,37.80
2018-07-30T10:07:15.448Z,37.90
2018-07-30T10:09:44.096Z,37.70
2018-07-30T10:12:13.405Z,37.80
2018-07-30T10:14:42.654Z,38.40
2018-07-30T10:17:11.504Z,38.30
2018-07-30T10:19:40.336Z,38.50
2018-07-30T10:22:09.046Z,38.20
2018-07-30T10:27:06.133Z,37.90
2018-07-30T10:29:35.062Z,38.10
2018-07-30T10:32:03.944Z,37.80
2018-07-30T10:34:33.932Z,38.00
2018-07-30T10:37:03.625Z,38.40
2018-07-30T10:39:32.368Z,38.80
2018-07-30T10:42:01.111Z,39.10
2018-07-30T10:44:30.284Z,39.00
2018-07-30T10:49:27.719Z,38.90
2018-07-30T10:51:56.482Z,39.00
2018-07-30T10:54:25.301Z,39.20
2018-07-30T10:56:54.048Z,39.50
2018-07-30T10:59:22.827Z,39.10
2018-07-30T11:01:51.692Z,39.10
2018-07-30T11:04:20.421Z,39.40
2018-07-30T11:06:49.740Z,39.60
2018-07-30T11:09:18.441Z,40.00
2018-07-30T11:11:47.154Z,39.50
2018-07-30T11:16:44.456Z,39.60
2018-07-30T11:19:13.186Z,39.20
2018-07-30T11:21:42.867Z,39.20
2018-07-30T11:24:11.634Z,39.10
2018-07-30T11:26:40.296Z,39.60
2018-07-30T11:31:37.546Z,39.50
2018-07-30T11:34:06.337Z,39.80
2018-07-30T11:36:35.189Z,39.80
2018-07-30T11:39:06.621Z,40.10
2018-07-30T11:41:35.381Z,40.20
2018-07-30T11:46:32.808Z,40.50
2018-07-30T11:49:01.595Z,40.50
2018-07-30T11:51:30.329Z,41.10
2018-07-30T11:53:59.871Z,40.30
2018-07-30T11:58:57.100Z,39.10
2018-07-30T12:03:55.534Z,39.30
2018-07-30T12:06:24.234Z,40.10
2018-07-30T12:08:53.081Z,40.60
2018-07-30T12:11:21.785Z,40.70
2018-07-30T12:13:50.580Z,40.00
2018-07-30T12:16:19.471Z,40.30
2018-07-30T12:18:49.248Z,40.60
2018-07-30T12:21:18.038Z,40.60
2018-07-30T12:23:46.941Z,40.60
2018-07-30T12:26:15.652Z,40.70
2018-07-30T12:28:45.171Z,40.70
2018-07-30T12:31:14.328Z,40.70
2018-07-30T12:33:43.371Z,39.70
2018-07-30T12:36:12.567Z,39.10
2018-07-30T12:38:41.321Z,39.20
2018-07-30T12:41:10.626Z,39.80
2018-07-30T12:43:39.319Z,39.90
2018-07-30T12:46:08.116Z,39.80
2018-07-30T12:48:36.830Z,40.00
2018-07-30T12:51:05.597Z,40.80
2018-07-30T12:53:34.300Z,40.80
2018-07-30T12:56:03.061Z,40.80
2018-07-30T12:58:31.824Z,41.20
2018-07-30T13:01:00.551Z,41.50
2018-07-30T13:03:29.234Z,41.90
2018-07-30T13:05:58.031Z,42.00
2018-07-30T13:08:26.688Z,41.90
2018-07-30T13:10:55.815Z,41.60
2018-07-30T13:13:24.507Z,41.80
2018-07-30T13:18:21.735Z,42.00
2018-07-30T13:20:50.609Z,42.30
2018-07-30T13:23:19.421Z,42.10
2018-07-30T13:25:48.103Z,41.70
2018-07-30T13:28:16.828Z,41.20
2018-07-30T13:30:45.646Z,40.80
2018-07-30T13:33:14.336Z,41.10
2018-07-30T13:35:43.019Z,41.40
2018-07-30T13:38:11.691Z,41.20
2018-07-30T13:43:09.696Z,41.20
2018-07-30T13:45:41.121Z,40.80
2018-07-30T13:50:38.338Z,39.60
2018-07-30T13:53:07.025Z,39.70
2018-07-30T13:55:35.768Z,40.00
2018-07-30T13:58:04.603Z,39.80
2018-07-30T14:00:33.636Z,39.70
2018-07-30T14:05:31.954Z,39.60
2018-07-30T14:08:00.806Z,39.80
2018-07-30T14:10:30.036Z,40.30
2018-07-30T14:12:58.751Z,40.30
2018-07-30T14:15:27.443Z,40.10
2018-07-30T14:17:56.238Z,39.90
2018-07-30T14:20:25.069Z,39.40
2018-07-30T14:27:50.785Z,37.50
2018-07-30T14:30:19.473Z,37.60
2018-07-30T14:32:48.200Z,37.80
2018-07-30T14:35:16.946Z,38.10
2018-07-30T14:37:45.623Z,38.60
2018-07-30T14:40:14.351Z,39.30
2018-07-30T14:42:44.482Z,39.50
2018-07-30T14:45:13.144Z,39.80
2018-07-30T14:47:41.849Z,40.10
2018-07-30T14:55:08.437Z,40.40
2018-07-30T14:57:37.169Z,39.80
2018-07-30T15:00:08.025Z,39.70
2018-07-30T15:05:05.950Z,39.70
2018-07-30T15:07:34.664Z,39.40
2018-07-30T15:10:03.659Z,38.40
2018-07-30T15:12:32.556Z,37.70
2018-07-30T15:15:01.866Z,36.90
2018-07-30T15:20:00.426Z,36.10
2018-07-30T15:22:29.183Z,35.80
2018-07-30T15:24:57.872Z,36.10
2018-07-30T15:27:26.531Z,37.00
2018-07-30T15:29:55.231Z,37.60
2018-07-30T15:32:23.948Z,38.00
2018-07-30T15:34:52.635Z,38.30
2018-07-30T15:37:21.316Z,38.60
2018-07-30T15:39:49.976Z,38.60
2018-07-30T15:44:47.173Z,38.50
2018-07-30T15:47:15.883Z,38.70
2018-07-30T15:49:44.637Z,38.60
2018-07-30T15:52:14.266Z,38.50
2018-07-30T15:54:43.292Z,38.40
2018-07-30T15:57:11.992Z,38.50
2018-07-30T15:59:40.659Z,38.20
2018-07-30T16:02:09.326Z,38.30
2018-07-30T16:04:38.046Z,38.50
2018-07-30T16:07:06.771Z,38.30
2018-07-30T16:09:35.513Z,37.90
2018-07-30T16:12:04.330Z,37.70
2018-07-30T16:14:33.580Z,37.70
2018-07-30T16:17:02.298Z,37.50
2018-07-30T16:19:30.931Z,37.30
2018-07-30T16:21:59.866Z,37.00
2018-07-30T16:24:28.598Z,37.10
2018-07-30T16:26:57.274Z,37.10
2018-07-30T16:29:26.011Z,36.70
2018-07-30T16:31:54.754Z,36.60
2018-07-30T16:34:23.430Z,36.60
2018-07-30T16:36:52.083Z,36.60
2018-07-30T16:39:20.890Z,36.50
2018-07-30T16:41:49.607Z,36.40
2018-07-30T16:44:18.366Z,36.30
2018-07-30T16:46:47.150Z,36.10
2018-07-30T16:49:16.408Z,35.80
2018-07-30T16:51:45.123Z,36.00
2018-07-30T16:54:13.756Z,35.90
2018-07-30T16:56:42.458Z,35.90
2018-07-30T16:59:11.073Z,35.90
2018-07-30T17:01:39.718Z,35.70
2018-07-30T17:04:08.455Z,35.30
2018-07-30T17:09:09.840Z,34.50
2018-07-30T17:11:39.181Z,34.10
2018-07-30T17:14:07.865Z,33.80
2018-07-30T17:16:36.555Z,33.60
2018-07-30T17:19:05.325Z,33.40
2018-07-30T17:21:33.995Z,33.20
2018-07-30T17:24:02.733Z,33.00
2018-07-30T17:26:31.505Z,32.80
2018-07-30T17:29:00.163Z,32.70
2018-07-30T17:31:28.876Z,32.50
2018-07-30T17:33:58.533Z,32.40
2018-07-30T17:36:27.230Z,32.20
2018-07-30T17:38:55.855Z,32.00
2018-07-30T17:41:24.558Z,31.80
2018-07-30T17:43:53.273Z,31.70
2018-07-30T17:46:21.946Z,31.50
2018-07-30T17:48:51.183Z,31.50
2018-07-30T17:51:19.936Z,31.40
2018-07-30T17:56:17.160Z,31.30
2018-07-30T17:58:45.829Z,31.40
2018-07-30T18:01:14.643Z,31.30
2018-07-30T18:03:43.265Z,31.20
2018-07-30T18:06:11.915Z,31.20
2018-07-30T18:08:40.533Z,31.10
2018-07-30T18:11:09.193Z,31.20
2018-07-30T18:13:37.863Z,31.20
2018-07-30T18:16:06.487Z,31.00
2018-07-30T18:23:32.063Z,30.80
2018-07-30T18:26:00.733Z,30.60
2018-07-30T18:28:29.429Z,30.70
2018-07-30T18:30:58.135Z,30.60
2018-07-30T18:33:26.931Z,30.60
2018-07-30T18:38:24.003Z,30.50
2018-07-30T18:40:52.942Z,30.40
2018-07-30T18:43:21.583Z,30.40
2018-07-30T18:45:50.263Z,30.40
2018-07-30T18:48:19.123Z,30.30
2018-07-30T18:50:47.775Z,30.10
2018-07-30T18:55:44.976Z,30.00
2018-07-30T18:58:13.696Z,29.90
2018-07-30T19:00:42.452Z,29.90
2018-07-30T19:03:11.237Z,30.00
2018-07-30T19:05:40.606Z,30.00
2018-07-30T19:10:39.123Z,29.90
2018-07-30T19:13:07.857Z,29.90
2018-07-30T19:15:36.636Z,30.00
2018-07-30T19:18:05.493Z,30.00
2018-07-30T19:20:34.359Z,30.00
2018-07-30T19:25:32.728Z,29.50
2018-07-30T19:28:01.990Z,29.40
2018-07-30T19:30:30.858Z,29.20
2018-07-30T19:33:00.113Z,28.90
2018-07-30T19:35:29.271Z,28.70
2018-07-30T19:37:58.072Z,28.40
2018-07-30T19:40:27.941Z,28.40
2018-07-30T19:42:56.836Z,28.30
2018-07-30T19:47:54.100Z,28.50
2018-07-30T19:50:23.049Z,28.70
2018-07-30T19:52:52.301Z,28.90
2018-07-30T19:55:21.455Z,29.00
2018-07-30T19:57:51.361Z,29.00
2018-07-30T20:00:19.808Z,29.30
2018-07-30T20:02:49.036Z,29.20
2018-07-30T20:05:17.796Z,29.30
2018-07-30T20:07:46.511Z,29.40
2018-07-30T20:10:15.787Z,29.30
2018-07-30T20:12:44.434Z,29.30
2018-07-30T20:17:42.148Z,29.20
2018-07-30T20:20:14.377Z,29.10
2018-07-30T20:22:43.496Z,28.90
2018-07-30T20:25:12.904Z,28.90
2018-07-30T20:27:43.011Z,28.90
2018-07-30T20:30:12.417Z,28.80
2018-07-30T20:32:41.255Z,28.60
2018-07-30T20:35:09.958Z,28.40
2018-07-30T20:37:39.208Z,28.20
2018-07-30T20:40:07.938Z,28.00
2018-07-30T20:42:36.685Z,27.80
2018-07-30T20:45:05.616Z,27.40
2018-07-30T20:47:34.370Z,26.90
2018-07-30T20:50:03.279Z,26.50
2018-07-30T20:52:32.621Z,26.10
2018-07-30T20:55:02.146Z,26.00
2018-07-30T20:57:30.875Z,26.00
2018-07-30T20:59:59.558Z,26.10
2018-07-30T21:02:28.250Z,26.00
2018-07-30T21:04:56.923Z,25.90
2018-07-30T21:07:25.601Z,25.80
2018-07-30T21:09:54.243Z,25.70
2018-07-30T21:12:22.878Z,25.70
2018-07-30T21:14:51.531Z,25.90
2018-07-30T21:17:21.029Z,26.00
2018-07-30T21:19:50.031Z,26.00
2018-07-30T21:22:18.731Z,25.90
2018-07-30T21:24:47.424Z,25.80
2018-07-30T21:27:16.058Z,25.80
2018-07-30T21:29:44.739Z,25.70
2018-07-30T21:32:13.413Z,25.60
2018-07-30T21:34:42.065Z,25.50
2018-07-30T21:37:10.743Z,25.40
2018-07-30T21:39:39.415Z,25.40
2018-07-30T21:42:08.136Z,25.20
2018-07-30T21:44:36.810Z,25.00
2018-07-30T21:47:05.480Z,24.70
2018-07-30T21:49:34.293Z,24.60
2018-07-30T21:52:03.003Z,24.50
2018-07-30T21:54:31.751Z,24.50
2018-07-30T21:57:00.433Z,24.50
2018-07-30T21:59:29.199Z,24.50
2018-07-30T22:01:57.971Z,24.40
2018-07-30T22:09:23.597Z,24.50
2018-07-30T22:11:52.306Z,24.40
2018-07-30T22:14:21.624Z,24.30
2018-07-30T22:16:50.286Z,24.00
2018-07-30T22:19:18.944Z,23.90
2018-07-30T22:21:47.553Z,23.70
2018-07-30T22:26:44.711Z,23.60
2018-07-30T22:29:13.392Z,23.60
2018-07-30T22:31:42.139Z,23.70
2018-07-30T22:34:10.891Z,23.60
2018-07-30T22:36:39.623Z,23.40
2018-07-30T22:39:11.028Z,23.40
2018-07-30T22:41:39.808Z,23.40
2018-07-30T22:46:37.236Z,23.20
2018-07-30T22:49:05.988Z,23.20
2018-07-30T22:51:34.768Z,23.20
2018-07-30T22:54:03.544Z,23.10
2018-07-30T23:01:29.361Z,23.10
2018-07-30T23:03:58.155Z,22.90
2018-07-30T23:06:28.940Z,22.90
2018-07-30T23:08:58.336Z,22.80
2018-07-30T23:11:27.053Z,22.70
2018-07-30T23:13:55.681Z,22.60
2018-07-30T23:16:24.435Z,22.60
2018-07-30T23:18:53.235Z,22.40
2018-07-30T23:21:21.923Z,22.30
2018-07-30T23:23:50.645Z,22.40
2018-07-30T23:26:19.385Z,22.40
2018-07-30T23:28:48.102Z,22.30
2018-07-30T23:33:45.252Z,22.30
2018-07-30T23:36:13.905Z,22.20
2018-07-30T23:38:42.595Z,22.10
2018-07-30T23:41:11.335Z,22.20
2018-07-30T23:46:08.632Z,22.20
2018-07-30T23:48:37.438Z,22.20
2018-07-30T23:51:06.172Z,22.10
2018-07-30T23:56:03.444Z,22.00
